Terminal Aerodrome Forecast
Issued by NWS

Home | Current Version | Previous Version | Text Only | Print | Product List | Glossary On
Versions: 1 2 3 4 5 6 7 8 9 10 11 12
143
FTUS46 KSTO 180538
TAFRDD
TAF
KRDD 180538Z 1806/1906 20006KT P6SM SCT050
     FM181200 24008KT P6SM VCSH BKN030
     FM181700 30012G25KT P6SM VCSH BKN050
     FM190300 22005KT P6SM BKN100=

USA.gov is the U.S. government's official web portal to all federal, state and local government web resources and services.